Jaca, Aragón

latitud = 42° 34' 44''N | longitud = 000° 32' 49''W
823 metros sobre el nivel del mar | datos mensuales

Fecha, hora, temperatura, viento dirección y velocidad, humedad y presión.

  • 23-04-2018 10:00:00 | 13.70°C | Nordeste |2.00 km/h | 65.00% | 0.00 hPa
  • 23-04-2018 09:00:00 | 12.40°C | Nordeste |7.00 km/h | 68.00% | 0.00 hPa
  • 23-04-2018 08:00:00 | 10.90°C | Este |7.00 km/h | 72.00% | 0.00 hPa
  • 23-04-2018 07:00:00 | 10.60°C | Este |3.00 km/h | 76.00% | 0.00 hPa
  • 23-04-2018 06:00:00 | 10.50°C | Nordeste |7.00 km/h | 76.00% | 0.00 hPa
  • 23-04-2018 05:00:00 | 9.70°C | Nordeste |7.00 km/h | 77.00% | 0.00 hPa
  • 23-04-2018 04:00:00 | 10.50°C | Nordeste |10.00 km/h | 74.00% | 0.00 hPa
  • 23-04-2018 03:00:00 | 11.00°C | Nordeste |6.00 km/h | 72.00% | 0.00 hPa
  • 23-04-2018 02:00:00 | 12.10°C | Nordeste |11.00 km/h | 72.00% | 0.00 hPa
  • 23-04-2018 01:00:00 | 12.80°C | Nordeste |6.00 km/h | 68.00% | 0.00 hPa
  • 23-04-2018 00:00:00 | 14.30°C | Este |4.00 km/h | 62.00% | 0.00 hPa
  • 22-04-2018 23:00:00 | 14.90°C | Nordeste |4.00 km/h | 59.00% | 0.00 hPa
  • 22-04-2018 22:00:00 | 16.10°C | Norte |7.00 km/h | 53.00% | 0.00 hPa
  • 22-04-2018 21:00:00 | 16.60°C | Norte |7.00 km/h | 52.00% | 0.00 hPa
  • 22-04-2018 20:00:00 | 18.60°C | Oeste |5.00 km/h | 47.00% | 0.00 hPa
  • 22-04-2018 19:00:00 | 20.70°C | Oeste |4.00 km/h | 44.00% | 0.00 hPa
  • 22-04-2018 18:00:00 | 21.90°C | Noroeste |7.00 km/h | 40.00% | 0.00 hPa
  • 22-04-2018 17:00:00 | 20.80°C | Noroeste |6.00 km/h | 40.00% | 0.00 hPa
  • 22-04-2018 16:00:00 | 21.00°C | Noroeste |7.00 km/h | 38.00% | 0.00 hPa
  • 22-04-2018 15:00:00 | 22.20°C | Este |3.00 km/h | 31.00% | 0.00 hPa
  • 22-04-2018 14:00:00 | 22.90°C | Sudeste |6.00 km/h | 29.00% | 0.00 hPa
  • 22-04-2018 13:00:00 | 21.00°C | Noroeste |7.00 km/h | 38.00% | 0.00 hPa
  • 22-04-2018 12:00:00 | 19.20°C | Oeste |3.00 km/h | 42.00% | 0.00 hPa
  • 22-04-2018 11:00:00 | 16.40°C | Noroeste |4.00 km/h | 49.00% | 0.00 hPa